Monday, September 22, 2014
08:19 UTC
  |  Log In   |  Register Free
Airport Search:

New River Valley Airport
(KPSK)

New River Valley Airport Diagram
No Airport Diagram Available

FAA data valid effective September 18, 2014 - November 13, 2014 (unless otherwise noted).

 
 
 
 
 
 
 
 
 
 
 
 
 
 

Current Aviation Weather for New River Valley Airport (KPSK)

The most recent METAR observation for KPSK was updated at: 0812
METAR Summary (Translated METAR)
KPSK
220755Z AUTO 26005KT 10SM CLR 14/10 A3000 RMK AO2 T01400096
KBCB
220755Z AUTO 28006KT 10SM CLR 14/11 A2999 RMK AO2
(13.6 nm NE from KPSK)
KHLX
220755Z AUTO 29005KT 10SM CLR 13/09 A3000 RMK AO2 T01250085
(23.3 nm SW from KPSK)
TAF Summary (Translated TAF)
KBCB
(13.6 nm NE from KPSK)
220528Z 2206/2306 30007KT P6SM SCT035 FM220900 29006KT P6SM OVC025 FM221400 31008G18KT P6SM BKN030 FM221700 31007KT P6SM SCT035 FM230000 VRB03KT P6SM SKC
  Airport Weather Conditions for KPSK

 Current Weather at PSK
58° F
Fair
West winds at 5.8 mph
PSK NOAA Radar

Pressure: 30.00 in
Humidity: 73%
Wind: West at 5.8 MPH (5 KT)
Dew Point: 49.1°F
Visibility: 10.00 mi


Airport Weather Forecast for KPSK

Translated METAR and TAF for KPSK
Translated METAR for KPSK (0813 UTC 22 September 2014)
found at http://aviationweather.gov/adds/metars/
 
METAR text: KPSK 220755Z AUTO 26005KT 10SM CLR 14/10 A3000 RMK AO2 T01400096
Conditions at: KPSK (DUBLIN/NEW RIV , VA, US) observed 0755 UTC 22 September 2014
Temperature: 14.0°C (57°F)
Dewpoint: 9.6°C (49°F) [RH = 75%]
Pressure (altimeter): 30.00 inches Hg (1016.0 mb)
Winds: from the W (260 degrees) at 6 MPH (5 knots; 2.6 m/s)
Visibility: 10 or more miles (16+ km)
Ceiling: at least 12,000 feet AGL
Clouds: sky clear below 12,000 feet AGL
Weather: automated observation with no human augmentation;
there may or may not be significant weather present at this time
Translated TAF for KPSK

There is no translated TAF available for this airport

Find All Airport Services Find A Hotel Find A Rental Car Find A Golf Course Find A Restaurant $100 Hamburger



FBO's on the Field
FBO Company Facility Photos Services Transportation Aviation Fuel Prices: Prices include tax
Catering Weather Repair Courtesy Rental Type 100LL JetA JetA+ MOGAS 8087
 
New River Valley Airport

This FBO has not yet been rated
FS:Avfuel
Last Updated: Aug-11
Login to update fuel prices
SS:
Contact New River Valley AirportMore FBO Information
 
Add another FBO Facility Photos Catering Weather Repair Courtesy Rental Type 100LL JetA JetA+ MOGAS 8087
Services Transportation Aviation Fuel Prices: Prices include tax


model-print
model-print
model-print
model-print